.
WxDataArchive / Data Records for 2015-01-03
2015-01-02 January 2015 2015-01-04

Data Records for Saturday, 03 January 2015

Time	Temp	Chill	HIndex	Humid	Dewpt	 Wind 	HiWind	WindDir	Rain 	Barom
-----	----	-----	------	-----	-----	------	------	-------	-----	-----
00:00	27.6	27.6	27.6	77	21.4	0	0	---	0.00	30.264 
00:05	27.5	27.5	27.5	77	21.3	0	1	315	0.00	30.264 
00:10	27.5	27.5	27.5	77	21.3	0	1	315	0.00	30.264 
00:15	27.5	27.5	27.5	77	21.3	0	1	315	0.00	30.253 
00:20	27.3	27.3	27.3	78	21.4	0	0	---	0.00	30.253 
00:25	27.3	27.3	27.3	78	21.4	0	1	315	0.00	30.253 
00:30	27.3	27.3	27.3	78	21.4	0	1	315	0.00	30.247 
00:35	27.2	27.2	27.2	78	21.3	0	1	315	0.00	30.247 
00:40	27.2	27.2	27.2	78	21.3	0	0	---	0.00	30.247 
00:45	27.0	27.0	27.0	78	21.1	0	0	---	0.00	30.248 
00:50	27.0	27.0	27.0	78	21.1	0	1	315	0.00	30.248 
00:55	26.9	26.9	26.9	79	21.3	0	1	315	0.00	30.248 
01:00	26.9	26.9	26.9	79	21.3	0	1	315	0.00	30.243 
01:05	26.9	26.9	26.9	79	21.3	0	2	315	0.00	30.243 
01:10	27.0	27.0	27.0	79	21.4	0	1	315	0.00	30.243 
01:15	27.0	27.0	27.0	79	21.4	0	2	315	0.00	30.233 
01:20	27.0	27.0	27.0	79	21.4	0	1	315	0.00	30.233 
01:25	27.2	27.2	27.2	79	21.6	0	1	315	0.00	30.233 
01:30	27.2	27.2	27.2	80	21.9	1	2	315	0.00	30.222 
01:35	27.3	27.3	27.3	79	21.7	0	2	315	0.00	30.222 
01:40	27.3	27.3	27.3	79	21.7	0	2	315	0.00	30.222 
01:45	27.5	27.5	27.5	79	21.9	1	3	315	0.00	30.212 
01:50	27.6	27.6	27.6	79	22.0	1	3	315	0.00	30.212 
01:55	27.8	27.8	27.8	79	22.2	1	4	315	0.00	30.212 
02:00	27.8	27.8	27.8	79	22.2	0	4	112	0.00	30.208 
02:05	27.9	27.9	27.9	79	22.2	0	2	112	0.00	30.208 
02:10	28.1	28.1	28.1	79	22.4	0	2	112	0.00	30.208 
02:15	28.2	28.2	28.2	79	22.5	0	3	112	0.00	30.197 
02:20	28.4	28.4	28.4	79	22.7	0	2	112	0.00	30.197 
02:25	28.5	28.5	28.5	79	22.8	0	3	112	0.00	30.197 
02:30	28.7	28.7	28.7	79	23.0	0	3	112	0.00	30.194 
02:35	28.8	28.8	28.8	79	23.1	1	3	112	0.00	30.194 
02:40	28.8	28.8	28.8	79	23.1	1	3	112	0.00	30.194 
02:45	29.0	29.0	29.0	79	23.3	1	3	90	0.00	30.195 
02:50	29.1	29.1	29.1	79	23.4	0	2	90	0.00	30.195 
02:55	29.3	29.3	29.3	79	23.6	0	2	90	0.00	30.195 
03:00	29.3	29.3	29.3	80	23.9	0	2	90	0.00	30.186 
03:05	29.4	29.4	29.4	80	24.0	1	4	90	0.00	30.186 
03:10	29.4	29.4	29.4	80	24.0	1	4	90	0.00	30.186 
03:15	29.5	29.5	29.5	81	24.4	0	3	90	0.00	30.183 
03:20	29.7	29.7	29.7	81	24.6	0	3	90	0.00	30.183 
03:25	29.7	29.7	29.7	82	24.9	1	3	90	0.00	30.183 
03:30	29.8	29.8	29.8	83	25.3	0	2	90	0.00	30.180 
03:35	29.8	29.8	29.8	84	25.6	0	2	90	0.00	30.180 
03:40	30.0	30.0	30.0	84	25.8	0	2	90	0.01	30.180 
03:45	30.1	30.1	30.1	85	26.1	0	2	90	0.00	30.170 
03:50	30.1	30.1	30.1	86	26.4	1	3	90	0.00	30.170 
03:55	30.1	30.1	30.1	86	26.4	1	3	90	0.00	30.170 
04:00	30.1	30.1	30.1	87	26.7	1	4	90	0.00	30.162 
04:05	30.3	30.3	30.3	88	27.2	1	3	90	0.00	30.162 
04:10	30.3	30.3	30.3	88	27.2	1	3	90	0.00	30.162 
04:15	30.4	30.4	30.4	88	27.3	1	4	90	0.00	30.145 
04:20	30.4	30.4	30.4	89	27.6	1	4	90	0.00	30.145 
04:25	30.6	30.6	30.6	89	27.8	1	4	90	0.00	30.145 
04:30	30.7	30.7	30.7	90	28.1	1	2	90	0.00	30.130 
04:35	30.9	30.9	30.9	90	28.3	1	2	90	0.00	30.130 
04:40	31.0	31.0	31.0	90	28.4	1	3	90	0.00	30.130 
04:45	31.0	31.0	31.0	91	28.7	0	2	90	0.00	30.126 
04:50	31.2	31.2	31.2	91	28.9	1	3	90	0.00	30.126 
04:55	31.3	31.3	31.3	91	29.0	0	2	90	0.00	30.126 
05:00	31.3	31.3	31.3	91	29.0	1	2	90	0.00	30.117 
05:05	31.3	31.3	31.3	91	29.0	1	2	90	0.00	30.117 
05:10	31.5	31.5	31.5	92	29.4	1	3	90	0.00	30.117 
05:15	31.5	31.5	31.5	92	29.4	0	2	90	0.00	30.117 
05:20	31.5	31.5	31.5	92	29.4	1	3	90	0.00	30.117 
05:25	31.5	31.5	31.5	92	29.4	1	3	90	0.00	30.117 
05:30	31.5	31.5	31.5	92	29.4	1	3	90	0.00	30.104 
05:35	31.6	31.6	31.6	92	29.5	1	3	90	0.00	30.104 
05:40	31.6	31.6	31.6	92	29.5	1	4	90	0.00	30.104 
05:45	31.8	31.8	31.8	92	29.7	1	4	90	0.00	30.092 
05:50	31.8	31.8	31.8	93	30.0	1	3	90	0.00	30.092 
05:55	31.9	31.9	31.9	93	30.1	2	4	90	0.00	30.092 
06:00	31.9	31.9	31.9	93	30.1	1	3	90	0.00	30.089 
06:05	31.9	31.9	31.9	93	30.1	0	2	90	0.00	30.089 
06:10	31.8	31.8	31.8	93	30.0	1	2	90	0.00	30.089 
06:15	31.9	31.9	31.9	93	30.1	1	3	90	0.00	30.096 
06:20	31.9	31.9	31.9	93	30.1	1	3	90	0.00	30.096 
06:25	31.9	31.9	31.9	93	30.1	1	2	90	0.00	30.096 
06:30	31.9	31.9	31.9	93	30.1	1	3	90	0.00	30.082 
06:35	31.9	31.9	31.9	93	30.1	1	3	90	0.00	30.082 
06:40	31.9	31.9	31.9	93	30.1	1	4	90	0.00	30.082 
06:45	31.9	31.9	31.9	94	30.4	1	3	90	0.00	30.074 
06:50	31.9	31.9	31.9	94	30.4	1	4	90	0.00	30.074 
06:55	31.9	31.9	31.9	94	30.4	1	3	90	0.00	30.074 
07:00	31.9	31.9	31.9	94	30.4	1	3	90	0.00	30.068 
07:05	31.9	31.9	31.9	94	30.4	2	4	90	0.00	30.068 
07:10	31.9	31.9	31.9	94	30.4	2	4	112	0.00	30.068 
07:15	31.9	31.9	31.9	94	30.4	2	5	112	0.00	30.060 
07:20	31.9	31.9	31.9	94	30.4	1	3	112	0.00	30.060 
07:25	31.9	31.9	31.9	94	30.4	2	3	112	0.00	30.060 
07:30	31.9	31.9	31.9	94	30.4	2	5	90	0.00	30.044 
07:35	31.9	31.9	31.9	94	30.4	2	4	90	0.00	30.044 
07:40	31.9	31.9	31.9	94	30.4	1	3	90	0.00	30.044 
07:45	31.9	31.9	31.9	94	30.4	1	3	90	0.00	30.043 
07:50	32.1	32.1	32.1	94	30.6	1	5	90	0.00	30.043 
07:55	32.1	32.1	32.1	94	30.6	2	4	112	0.00	30.043 
08:00	32.1	32.1	32.1	94	30.6	1	3	90	0.00	30.044 
08:05	32.1	32.1	32.1	94	30.6	2	5	90	0.00	30.044 
08:10	32.1	32.1	32.1	94	30.6	0	3	90	0.00	30.044 
08:15	32.1	32.1	32.1	94	30.6	1	4	90	0.00	30.044 
08:20	32.1	32.1	32.1	95	30.8	1	3	90	0.00	30.044 
08:25	32.1	32.1	32.1	95	30.8	1	3	90	0.00	30.044 
08:30	32.1	32.1	32.1	95	30.8	1	2	90	0.00	30.039 
08:35	32.1	32.1	32.1	95	30.8	1	4	90	0.00	30.039 
08:40	32.1	32.1	32.1	95	30.8	1	3	90	0.00	30.039 
08:45	32.2	32.2	32.2	95	30.9	2	3	90	0.00	30.030 
08:50	32.2	32.2	32.2	95	30.9	1	4	90	0.00	30.030 
08:55	32.2	32.2	32.2	95	30.9	1	3	90	0.00	30.030 
09:00	32.2	32.2	32.2	95	30.9	2	4	90	0.00	30.028 
09:05	32.2	32.2	32.2	95	30.9	2	5	90	0.00	30.028 
09:10	32.2	32.2	32.2	95	30.9	0	3	90	0.00	30.028 
09:15	32.2	32.2	32.2	95	30.9	1	3	90	0.00	30.026 
09:20	32.2	32.2	32.2	95	30.9	1	6	90	0.00	30.026 
09:25	32.2	32.2	32.2	95	30.9	1	3	90	0.00	30.026 
09:30	32.2	32.2	32.2	95	30.9	2	5	90	0.00	30.020 
09:35	32.2	32.2	32.2	95	30.9	2	4	112	0.00	30.020 
09:40	32.2	32.2	32.2	95	30.9	2	5	112	0.00	30.020 
09:45	32.2	32.2	32.2	95	30.9	2	5	112	0.00	30.010 
09:50	32.2	32.2	32.2	95	30.9	2	6	90	0.00	30.010 
09:55	32.2	32.2	32.2	95	30.9	0	3	90	0.00	30.010 
10:00	32.2	32.2	32.2	95	30.9	1	4	90	0.00	29.998 
10:05	32.4	32.4	32.4	95	31.1	1	4	112	0.00	29.998 
10:10	32.4	32.4	32.4	95	31.1	0	2	112	0.00	29.998 
10:15	32.4	32.4	32.4	95	31.1	1	4	112	0.00	30.004 
10:20	32.4	32.4	32.4	95	31.1	1	3	112	0.00	30.004 
10:25	32.4	32.4	32.4	95	31.1	1	4	112	0.00	30.004 
10:30	32.4	32.4	32.4	95	31.1	0	2	112	0.00	30.000 
10:35	32.4	32.4	32.4	95	31.1	1	4	112	0.00	30.000 
10:40	32.4	32.4	32.4	95	31.1	0	2	112	0.00	30.000 
10:45	32.4	32.4	32.4	95	31.1	0	2	112	0.00	29.996 
10:50	32.4	32.4	32.4	95	31.1	0	2	112	0.00	29.996 
10:55	32.4	32.4	32.4	95	31.1	1	3	112	0.00	29.996 
11:00	32.4	32.4	32.4	95	31.1	2	4	90	0.00	29.978 
11:05	32.4	32.4	32.4	95	31.1	2	4	90	0.00	29.978 
11:10	32.4	32.4	32.4	95	31.1	1	4	90	0.00	29.978 
11:15	32.4	32.4	32.4	95	31.1	2	5	112	0.00	29.965 
11:20	32.4	32.4	32.4	95	31.1	1	4	90	0.00	29.965 
11:25	32.4	32.4	32.4	95	31.1	2	4	90	0.00	29.965 
11:30	32.5	32.5	32.5	95	31.2	2	6	90	0.00	29.949 
11:35	32.5	32.5	32.5	95	31.2	2	6	90	0.00	29.949 
11:40	32.5	32.5	32.5	95	31.2	2	4	90	0.00	29.949 
11:45	32.5	32.5	32.5	95	31.2	2	4	90	0.00	29.948 
11:50	32.5	32.5	32.5	95	31.2	0	2	90	0.00	29.948 
11:55	32.5	32.5	32.5	95	31.2	1	3	90	0.00	29.948 
12:00	32.5	32.5	32.5	95	31.2	2	4	90	0.00	29.932 
12:05	32.7	32.7	32.7	95	31.4	2	5	90	0.00	29.932 
12:10	32.5	32.5	32.5	95	31.2	2	7	90	0.00	29.932 
12:15	32.5	32.5	32.5	95	31.2	2	5	90	0.00	29.908 
12:20	32.5	32.5	32.5	95	31.2	1	4	90	0.00	29.908 
12:25	32.5	32.5	32.5	95	31.2	1	3	90	0.00	29.908 
12:30	32.7	32.7	32.7	95	31.4	1	4	90	0.00	29.896 
12:35	32.7	32.7	32.7	95	31.4	1	3	90	0.00	29.896 
12:40	32.7	32.7	32.7	95	31.4	0	2	90	0.00	29.896 
12:45	32.7	32.7	32.7	96	31.7	1	4	90	0.00	29.884 
12:50	32.7	32.7	32.7	96	31.7	1	2	90	0.00	29.884 
12:55	32.7	32.7	32.7	96	31.7	1	3	90	0.00	29.884 
13:00	32.8	32.8	32.8	96	31.8	1	3	90	0.00	29.877 
13:05	32.8	32.8	32.8	96	31.8	1	2	90	0.00	29.877 
13:10	32.8	32.8	32.8	96	31.8	1	2	90	0.00	29.877 
13:15	32.8	32.8	32.8	96	31.8	0	1	90	0.00	29.869 
13:20	32.9	32.9	32.9	96	31.9	1	3	90	0.00	29.869 
13:25	32.9	32.9	32.9	96	31.9	0	2	90	0.00	29.869 
13:30	33.1	33.1	33.1	96	32.1	0	3	90	0.00	29.860 
13:35	33.1	33.1	33.1	96	32.1	0	2	90	0.00	29.860 
13:40	33.2	33.2	33.2	96	32.2	0	3	90	0.00	29.860 
13:45	33.4	33.4	33.4	96	32.4	1	3	90	0.00	29.852 
13:50	33.4	33.4	33.4	96	32.4	0	2	90	0.00	29.852 
13:55	33.5	33.5	33.5	96	32.5	0	2	90	0.00	29.852 
14:00	33.5	33.5	33.5	96	32.5	0	2	90	0.00	29.841 
14:05	33.7	33.7	33.7	96	32.7	0	1	90	0.00	29.841 
14:10	33.7	33.7	33.7	96	32.7	0	2	90	0.00	29.841 
14:15	33.8	33.8	33.8	96	32.8	0	1	90	0.00	29.834 
14:20	33.8	33.8	33.8	96	32.8	0	2	90	0.00	29.834 
14:25	33.8	33.8	33.8	96	32.8	0	2	90	0.00	29.834 
14:30	34.0	34.0	34.0	96	33.0	0	1	90	0.00	29.833 
14:35	34.0	34.0	34.0	96	33.0	0	2	90	0.00	29.833 
14:40	34.0	34.0	34.0	96	33.0	0	1	90	0.00	29.833 
14:45	34.0	34.0	34.0	96	33.0	1	5	90	0.00	29.820 
14:50	34.0	34.0	34.0	96	33.0	1	4	90	0.00	29.820 
14:55	34.0	34.0	34.0	96	33.0	1	4	90	0.00	29.820 
15:00	34.0	34.0	34.0	96	33.0	1	4	90	0.00	29.816 
15:05	34.0	34.0	34.0	96	33.0	1	3	90	0.00	29.816 
15:10	34.0	34.0	34.0	96	33.0	1	3	90	0.00	29.816 
15:15	34.0	34.0	34.0	96	33.0	2	7	90	0.00	29.801 
15:20	34.0	34.0	34.0	96	33.0	1	3	90	0.01	29.801 
15:25	34.0	34.0	34.0	96	33.0	1	4	90	0.01	29.801 
15:30	34.0	34.0	34.0	96	33.0	1	2	90	0.00	29.798 
15:35	34.0	34.0	34.0	96	33.0	2	4	90	0.00	29.798 
15:40	34.0	34.0	34.0	96	33.0	2	4	90	0.00	29.798 
15:45	34.1	34.1	34.1	96	33.1	1	5	90	0.01	29.786 
15:50	34.1	34.1	34.1	96	33.1	1	3	90	0.01	29.786 
15:55	34.1	34.1	34.1	96	33.1	1	3	90	0.00	29.786 
16:00	34.1	34.1	34.1	96	33.1	1	3	90	0.00	29.782 
16:05	34.1	34.1	34.1	96	33.1	1	3	90	0.00	29.782 
16:10	34.3	34.3	34.3	96	33.3	1	4	90	0.02	29.782 
16:15	34.3	34.3	34.3	96	33.3	1	3	90	0.00	29.775 
16:20	34.3	34.3	34.3	96	33.3	1	3	90	0.00	29.775 
16:25	34.3	34.3	34.3	96	33.3	1	3	90	0.00	29.775 
16:30	34.3	34.3	34.3	96	33.3	1	3	90	0.00	29.771 
16:35	34.3	34.3	34.3	96	33.3	1	3	90	0.00	29.771 
16:40	34.3	34.3	34.3	96	33.3	1	3	90	0.00	29.771 
16:45	34.4	34.4	34.4	96	33.4	0	3	90	0.00	29.768 
16:50	34.4	34.4	34.4	96	33.4	0	2	90	0.01	29.768 
16:55	34.4	34.4	34.4	96	33.4	0	3	90	0.00	29.768 
17:00	34.4	34.4	34.4	96	33.4	0	2	90	0.01	29.761 
17:05	34.4	34.4	34.4	96	33.4	0	1	90	0.00	29.761 
17:10	34.4	34.4	34.4	96	33.4	0	0	---	0.00	29.761 
17:15	34.4	34.4	34.4	96	33.4	0	0	---	0.00	29.766 
17:20	34.4	34.4	34.4	96	33.4	0	1	90	0.01	29.766 
17:25	34.4	34.4	34.4	96	33.4	0	0	---	0.01	29.766 
17:30	34.4	34.4	34.4	96	33.4	0	2	90	0.00	29.769 
17:35	34.4	34.4	34.4	96	33.4	2	4	90	0.01	29.769 
17:40	34.4	34.4	34.4	96	33.4	1	4	292	0.01	29.769 
17:45	34.4	34.4	34.4	96	33.4	0	2	292	0.00	29.781 
17:50	34.3	34.3	34.3	96	33.3	0	3	292	0.00	29.781 
17:55	34.4	34.4	34.4	96	33.4	0	2	292	0.01	29.781 
18:00	34.4	34.4	34.4	96	33.4	0	1	292	0.00	29.783 
18:05	34.4	34.4	34.4	96	33.4	0	0	---	0.01	29.783 
18:10	34.4	34.4	34.4	96	33.4	0	0	---	0.00	29.783 
18:15	34.4	34.4	34.4	96	33.4	0	0	---	0.00	29.781 
18:20	34.6	34.6	34.6	96	33.6	0	0	---	0.00	29.781 
18:25	34.6	34.6	34.6	96	33.6	0	0	---	0.00	29.781 
18:30	34.6	34.6	34.6	96	33.6	0	0	---	0.00	29.785 
18:35	34.6	34.6	34.6	96	33.6	0	0	---	0.00	29.785 
18:40	34.6	34.6	34.6	96	33.6	0	0	---	0.00	29.785 
18:45	34.7	34.7	34.7	96	33.7	0	0	---	0.01	29.786 
18:50	34.7	34.7	34.7	96	33.7	0	0	---	0.00	29.786 
18:55	34.9	34.9	34.9	96	33.9	0	0	---	0.00	29.786 
19:00	34.9	34.9	34.9	96	33.9	0	0	---	0.00	29.784 
19:05	35.0	35.0	35.0	96	34.0	0	0	---	0.00	29.784 
19:10	35.0	35.0	35.0	96	34.0	0	0	---	0.00	29.784 
19:15	35.2	35.2	35.2	96	34.2	0	1	292	0.00	29.772 
19:20	35.2	35.2	35.2	96	34.2	0	1	292	0.00	29.772 
19:25	35.0	35.0	35.0	96	34.0	0	1	292	0.00	29.772 
19:30	35.0	35.0	35.0	96	34.0	0	1	292	0.01	29.769 
19:35	35.0	35.0	35.0	96	34.0	0	0	---	0.00	29.769 
19:40	34.9	34.9	34.9	96	33.9	0	0	---	0.00	29.769 
19:45	34.9	34.9	34.9	96	33.9	0	0	---	0.00	29.776 
19:50	34.9	34.9	34.9	96	33.9	0	1	292	0.00	29.776 
19:55	34.9	34.9	34.9	96	33.9	0	0	---	0.00	29.776 
20:00	35.0	35.0	35.0	96	34.0	0	1	292	0.00	29.765 
20:05	35.0	35.0	35.0	96	34.0	0	0	---	0.00	29.765 
20:10	35.0	35.0	35.0	96	34.0	0	0	---	0.00	29.765 
20:15	35.0	35.0	35.0	96	34.0	0	0	---	0.00	29.763 
20:20	35.0	35.0	35.0	96	34.0	0	0	---	0.00	29.763 
20:25	35.0	35.0	35.0	96	34.0	0	1	292	0.00	29.763 
20:30	35.2	35.2	35.2	96	34.2	0	0	---	0.00	29.766 
20:35	35.2	35.2	35.2	96	34.2	0	0	---	0.00	29.766 
20:40	35.2	35.2	35.2	96	34.2	0	1	292	0.00	29.766 
20:45	35.2	35.2	35.2	96	34.2	0	1	292	0.00	29.759 
20:50	35.2	35.2	35.2	96	34.2	0	1	292	0.00	29.759 
20:55	35.2	35.2	35.2	96	34.2	0	0	---	0.00	29.759 
21:00	35.3	35.3	35.3	96	34.3	0	1	292	0.00	29.755 
21:05	35.3	35.3	35.3	96	34.3	0	0	---	0.00	29.755 
21:10	35.3	35.3	35.3	96	34.3	0	1	292	0.00	29.755 
21:15	35.5	35.5	35.5	96	34.5	0	1	292	0.00	29.750 
21:20	35.5	35.5	35.5	96	34.5	0	2	292	0.00	29.750 
21:25	35.6	35.6	35.6	96	34.6	0	1	292	0.00	29.750 
21:30	35.6	35.6	35.6	96	34.6	0	1	292	0.00	29.751 
21:35	35.8	35.8	35.8	96	34.8	0	2	292	0.00	29.751 
21:40	35.9	35.9	35.9	96	34.9	0	2	292	0.00	29.751 
21:45	35.9	35.9	35.9	96	34.9	0	0	---	0.00	29.766 
21:50	36.0	36.0	36.0	96	35.0	0	1	292	0.00	29.766 
21:55	36.2	36.2	36.2	96	35.2	0	1	292	0.00	29.766 
22:00	36.2	36.2	36.2	96	35.2	0	0	---	0.00	29.773 
22:05	36.3	36.3	36.3	96	35.3	0	0	---	0.00	29.773 
22:10	36.3	36.3	36.3	96	35.3	0	0	---	0.00	29.773 
22:15	36.3	36.3	36.3	96	35.3	0	0	---	0.00	29.772 
22:20	36.3	36.3	36.3	96	35.3	0	0	---	0.00	29.772 
22:25	36.3	36.3	36.3	96	35.3	0	0	---	0.00	29.772 
22:30	36.5	36.5	36.5	96	35.5	0	0	---	0.00	29.746 
22:35	36.5	36.5	36.5	96	35.5	0	0	---	0.00	29.746 
22:40	36.5	36.5	36.5	96	35.5	0	0	---	0.00	29.746 
22:45	36.6	36.6	36.6	96	35.6	0	0	---	0.00	29.751 
22:50	36.6	36.6	36.6	96	35.6	0	0	---	0.00	29.751 
22:55	36.6	36.6	36.6	96	35.6	0	0	---	0.00	29.751 
23:00	36.5	36.5	36.5	96	35.5	0	0	---	0.00	29.751 
23:05	36.5	36.5	36.5	96	35.5	0	0	---	0.00	29.751 
23:10	36.5	36.5	36.5	96	35.5	0	0	---	0.00	29.751 
23:15	36.5	36.5	36.5	96	35.5	0	0	---	0.00	29.739 
23:20	36.3	36.3	36.3	96	35.3	0	0	---	0.00	29.739 
23:25	36.3	36.3	36.3	96	35.3	0	0	---	0.00	29.739 
23:30	36.3	36.3	36.3	96	35.3	0	0	---	0.00	29.743 
23:35	36.3	36.3	36.3	96	35.3	0	0	---	0.00	29.743 
23:40	36.3	36.3	36.3	96	35.3	0	0	---	0.00	29.743 
23:45	36.5	36.5	36.5	96	35.5	0	0	---	0.00	29.730 
23:50	36.5	36.5	36.5	96	35.5	0	0	---	0.00	29.730 
23:55	36.3	36.3	36.3	96	35.3	0	0	---	0.00	29.730 

CoCoRaHS
IN-AL-39
A2 Web Hosting
Creative Commons License
GoDaddy
search engine by freefind advanced

loaded 2018-11-18 11:27:03 • last modified 2010-11-18 10:43:29
Privacy PolicyDisclaimer
• wx.awcolley.com is powered by PmWiki v.2002016 •
• all content (unless otherwise noted) © 2018 A W Colley